Time;durP1;ratioP1;P1;durP2;ratioP2;P2;SDS_P1;SDS_P2;PMS_P1;PMS_P2;Temp;Humidity;BMP_temperature;BMP_pressure;BME280_temperature;BME280_humidity;BME280_pressure;Samples;Min_cycle;Max_cycle;Signal;HPM_P1;HPM_P2
2021/12/31 00:00:14;;;;;;;35.40;20.42;;;;;;;8.34;77.65;100925.03;5350900;32;34651;-67
2021/12/31 00:03:17;;;;;;;36.23;20.67;;;;;;;8.36;76.61;100936.34;5373769;32;34505;-67
2021/12/31 00:06:20;;;;;;;33.63;19.48;;;;;;;8.08;77.54;100931.66;5363094;32;33385;-62
2021/12/31 00:09:22;;;;;;;36.70;20.07;;;;;;;8.36;76.68;100931.97;5379845;32;33698;-61
2021/12/31 00:12:25;;;;;;;32.27;19.03;;;;;;;8.19;76.32;100935.84;5370456;32;34696;-68
2021/12/31 00:15:27;;;;;;;33.00;19.00;;;;;;;8.15;76.91;100933.25;5393681;32;33169;-62
2021/12/31 00:18:31;;;;;;;35.40;20.05;;;;;;;7.83;77.98;100943.50;5366225;32;34294;-67
2021/12/31 00:21:36;;;;;;;37.57;20.60;;;;;;;7.83;79.01;100946.13;5390822;32;32797;-61
2021/12/31 00:24:39;;;;;;;37.27;21.23;;;;;;;7.68;79.42;100939.44;5370665;32;34600;-61
2021/12/31 00:27:42;;;;;;;40.17;22.33;;;;;;;7.32;80.90;100944.41;5389868;32;33043;-66
2021/12/31 00:30:51;;;;;;;37.47;22.73;;;;;;;7.26;82.70;100939.28;5359408;32;34141;-66
2021/12/31 00:33:53;;;;;;;36.03;21.50;;;;;;;7.84;80.28;100934.75;5381499;32;34892;-62
2021/12/31 00:36:56;;;;;;;41.10;22.03;;;;;;;7.48;80.70;100931.94;5355026;32;34022;-67
2021/12/31 00:39:59;;;;;;;39.83;22.07;;;;;;;7.95;80.56;100942.41;5379030;32;33041;-61
2021/12/31 00:43:03;;;;;;;37.75;22.17;;;;;;;8.43;77.83;100943.19;5360204;32;33014;-61
2021/12/31 00:46:06;;;;;;;36.72;20.62;;;;;;;8.88;75.06;100941.28;5364334;32;35518;-63
2021/12/31 00:49:10;;;;;;;38.08;21.45;;;;;;;8.91;75.23;100943.00;5351927;32;34212;-67
2021/12/31 00:52:13;;;;;;;37.97;21.90;;;;;;;8.44;76.38;100936.19;5360322;32;34012;-61
2021/12/31 00:55:16;;;;;;;36.60;20.90;;;;;;;9.14;74.38;100947.69;5376331;32;34626;-67
2021/12/31 00:58:20;;;;;;;39.00;20.87;;;;;;;8.89;74.58;100952.69;5365448;32;33651;-61
2021/12/31 01:01:25;;;;;;;40.93;21.47;;;;;;;8.89;75.37;100948.28;5364286;32;35330;-61
2021/12/31 01:04:30;;;;;;;39.10;21.73;;;;;;;9.26;72.70;100947.38;5387299;32;33783;-60
2021/12/31 01:07:34;;;;;;;41.70;22.47;;;;;;;9.01;73.60;100952.34;5359128;32;34185;-62
2021/12/31 01:10:37;;;;;;;39.40;22.10;;;;;;;8.72;74.64;100953.03;5364094;32;34714;-62
2021/12/31 01:13:58;;;;;;;39.83;21.27;;;;;;;9.35;72.91;100954.19;5360530;32;34998;-61
2021/12/31 01:17:04;;;;;;;43.07;21.23;;;;;;;8.81;74.49;100958.06;5373789;32;33182;-61
2021/12/31 01:20:07;;;;;;;43.00;23.23;;;;;;;8.94;75.18;100956.03;5375618;32;35177;-61
2021/12/31 01:23:14;;;;;;;41.43;23.23;;;;;;;8.93;74.39;100954.31;5397016;32;33925;-61
2021/12/31 01:26:17;;;;;;;39.23;21.10;;;;;;;8.88;73.97;100962.25;5379871;32;35710;-61
2021/12/31 01:29:21;;;;;;;41.07;22.50;;;;;;;9.21;73.54;100958.00;5356751;32;33093;-61
2021/12/31 01:32:24;;;;;;;42.10;23.47;;;;;;;9.04;74.22;100961.94;5364332;32;33779;-62
2021/12/31 01:35:27;;;;;;;41.78;22.58;;;;;;;9.62;70.98;100942.13;5355902;32;33851;-66
2021/12/31 01:38:29;;;;;;;40.77;22.77;;;;;;;9.19;73.43;100945.81;5395767;32;34549;-66
2021/12/31 01:41:31;;;;;;;41.00;22.47;;;;;;;9.55;72.34;100943.19;5355892;32;33188;-68
2021/12/31 01:44:38;;;;;;;38.10;21.93;;;;;;;9.54;72.28;100947.56;5379521;32;33811;-60
2021/12/31 01:50:57;;;;;;;40.93;21.60;;;;;;;8.82;74.56;100948.44;5382378;32;34045;-61
2021/12/31 01:54:00;;;;;;;39.07;22.47;;;;;;;9.30;72.51;100937.69;5354952;32;34391;-61
2021/12/31 01:57:06;;;;;;;37.80;21.47;;;;;;;9.29;73.60;100941.22;5379431;32;33979;-61
2021/12/31 02:00:10;;;;;;;36.57;21.63;;;;;;;9.42;72.91;100943.50;5359832;32;32841;-61
2021/12/31 02:03:12;;;;;;;;;;;;;;;8.81;75.32;100954.59;5365893;32;34906;-60
2021/12/31 02:06:14;;;;;;;40.00;21.23;;;;;;;9.33;74.07;100953.34;5382562;32;33833;-60
2021/12/31 02:09:17;;;;;;;39.47;20.80;;;;;;;9.70;71.99;100948.00;5374355;32;34461;-61
2021/12/31 02:12:19;;;;;;;39.40;21.77;;;;;;;9.59;72.36;100950.91;5374430;32;34387;-69
2021/12/31 02:15:21;;;;;;;37.13;21.77;;;;;;;9.20;73.38;100958.87;5378711;32;34683;-62
2021/12/31 02:18:23;;;;;;;40.43;22.13;;;;;;;9.13;73.50;100945.97;5378434;32;32832;-62
2021/12/31 02:21:26;;;;;;;36.78;20.83;;;;;;;9.67;72.19;100945.50;5380076;32;34026;-62
2021/12/31 02:24:29;;;;;;;39.53;21.80;;;;;;;9.94;70.22;100941.25;5377098;32;35023;-60
2021/12/31 02:27:37;;;;;;;35.80;21.33;;;;;;;9.81;70.96;100932.00;5386520;32;34287;-67
2021/12/31 02:30:40;;;;;;;36.43;20.93;;;;;;;10.00;70.23;100917.44;5378339;32;33097;-66
2021/12/31 02:33:43;;;;;;;39.50;21.77;;;;;;;9.52;71.55;100933.59;5381390;32;34342;-67
2021/12/31 02:36:47;;;;;;;37.38;20.62;;;;;;;9.54;72.21;100923.97;5359412;32;34123;-60
2021/12/31 02:39:49;;;;;;;;;;;;;;;9.79;71.06;100926.78;5376609;32;34988;-67
2021/12/31 02:42:51;;;;;;;37.90;20.87;;;;;;;9.88;70.35;100920.41;5394039;32;33393;-61
2021/12/31 02:45:54;;;;;;;38.53;20.77;;;;;;;9.65;71.11;100919.25;5360055;32;34185;-68
2021/12/31 02:48:58;;;;;;;39.33;21.13;;;;;;;9.76;70.37;100918.97;5385343;32;34884;-67
2021/12/31 02:52:02;;;;;;;38.50;21.73;;;;;;;9.88;70.50;100915.16;5374712;32;34013;-62
2021/12/31 02:55:06;;;;;;;39.87;21.60;;;;;;;10.09;69.51;100918.94;5388976;32;35082;-67
2021/12/31 02:58:10;;;;;;;40.73;22.13;;;;;;;9.68;70.88;100908.69;5381720;32;32674;-67
2021/12/31 03:01:13;;;;;;;37.22;20.27;;;;;;;9.32;72.09;100925.37;5364074;32;33654;-62
2021/12/31 03:04:17;;;;;;;39.23;22.63;;;;;;;9.56;71.69;100913.41;5368356;32;35436;-62
2021/12/31 03:07:21;;;;;;;40.80;22.73;;;;;;;9.88;70.18;100923.03;5378878;32;34682;-62
2021/12/31 03:10:26;;;;;;;39.87;22.27;;;;;;;9.19;72.09;100915.19;5377256;32;34620;-61
2021/12/31 03:13:30;;;;;;;38.63;22.13;;;;;;;9.21;71.97;100907.31;5380912;32;35076;-61
2021/12/31 03:16:34;;;;;;;38.10;21.73;;;;;;;9.27;72.34;100914.16;5349465;32;34761;-68
2021/12/31 03:19:38;;;;;;;42.10;22.48;;;;;;;9.38;71.23;100907.72;5380233;32;35653;-61
2021/12/31 03:22:42;;;;;;;39.73;21.70;;;;;;;9.08;72.31;100916.38;5366288;32;34145;-67
2021/12/31 03:25:45;;;;;;;38.97;22.40;;;;;;;9.22;71.72;100919.53;5359671;32;34371;-67
2021/12/31 03:28:48;;;;;;;41.17;22.07;;;;;;;9.21;71.59;100912.56;5353997;32;35203;-67
2021/12/31 03:31:53;;;;;;;35.23;21.40;;;;;;;9.39;71.04;100912.06;5370292;32;33088;-61
2021/12/31 03:34:57;;;;;;;38.60;20.30;;;;;;;9.26;70.78;100913.28;5352978;32;33256;-61
2021/12/31 03:38:00;;;;;;;42.17;22.87;;;;;;;9.33;70.56;100904.34;5355613;32;34703;-67
2021/12/31 03:41:02;;;;;;;38.83;22.37;;;;;;;9.07;70.82;100910.25;5391417;32;32771;-62
2021/12/31 03:44:06;;;;;;;39.55;20.77;;;;;;;8.99;71.68;100908.72;5368993;32;33952;-68
2021/12/31 03:47:11;;;;;;;36.10;21.13;;;;;;;8.85;71.76;100904.69;5367375;32;35105;-61
2021/12/31 03:50:13;;;;;;;39.47;20.47;;;;;;;8.21;74.29;100906.09;5375035;32;35373;-61
2021/12/31 03:53:16;;;;;;;36.47;20.20;;;;;;;9.08;71.81;100908.50;5389214;32;34696;-61
2021/12/31 03:56:21;;;;;;;42.15;22.80;;;;;;;8.56;73.20;100910.59;5378298;32;33867;-61
2021/12/31 03:59:23;;;;;;;36.67;20.57;;;;;;;8.56;73.90;100907.97;5363071;32;35181;-68
2021/12/31 04:02:26;;;;;;;42.00;23.67;;;;;;;8.68;73.15;100891.09;5393048;32;35010;-68
2021/12/31 04:05:29;;;;;;;39.97;22.23;;;;;;;8.66;72.91;100899.00;5359805;32;33020;-66
2021/12/31 04:08:32;;;;;;;39.85;22.55;;;;;;;8.52;73.45;100897.59;5370698;32;34450;-67
2021/12/31 04:11:35;;;;;;;37.92;20.00;;;;;;;8.25;74.50;100914.75;5359582;32;34611;-68
2021/12/31 04:14:38;;;;;;;42.38;21.90;;;;;;;8.99;72.03;100900.88;5361176;32;34297;-61
2021/12/31 04:17:41;;;;;;;38.30;22.17;;;;;;;9.17;70.64;100909.16;5372301;32;34514;-67
2021/12/31 04:20:48;;;;;;;41.15;20.95;;;;;;;8.61;72.41;100910.50;5384501;32;34141;-67
2021/12/31 04:24:13;;;;;;;38.10;21.87;;;;;;;8.51;73.78;100909.00;5371062;32;33038;-60
2021/12/31 04:27:17;;;;;;;39.77;22.17;;;;;;;8.59;74.06;100900.06;5382160;32;34333;-68
2021/12/31 04:30:21;;;;;;;40.47;22.37;;;;;;;8.38;74.43;100905.78;5378365;32;34414;-61
2021/12/31 04:33:23;;;;;;;37.33;19.80;;;;;;;8.64;73.87;100900.81;5372264;32;34081;-61
2021/12/31 04:36:25;;;;;;;39.23;22.60;;;;;;;8.87;72.84;100894.16;5377165;32;34434;-67
2021/12/31 04:39:28;;;;;;;38.07;21.90;;;;;;;8.63;73.19;100892.97;5380628;32;34535;-61
2021/12/31 04:42:32;;;;;;;38.63;21.67;;;;;;;8.45;74.55;100903.88;5371971;32;34038;-67
2021/12/31 04:45:35;;;;;;;40.50;20.70;;;;;;;8.79;73.47;100896.09;5369254;32;34152;-68
2021/12/31 04:48:40;;;;;;;39.50;21.27;;;;;;;8.99;71.93;100887.75;5360485;32;33812;-62
2021/12/31 04:51:43;;;;;;;41.57;21.90;;;;;;;8.11;75.96;100904.53;5346336;32;34321;-61
2021/12/31 04:54:45;;;;;;;36.17;20.17;;;;;;;7.98;77.09;100911.78;5355757;32;34682;-61
2021/12/31 04:57:50;;;;;;;39.47;21.00;;;;;;;7.93;79.04;100911.03;5346321;32;34431;-62
2021/12/31 05:00:53;;;;;;;36.53;19.30;;;;;;;8.76;74.29;100912.78;5351804;32;34613;-67
2021/12/31 05:03:56;;;;;;;35.67;21.73;;;;;;;8.66;74.35;100909.50;5330920;32;33246;-62
2021/12/31 05:07:01;;;;;;;36.97;20.67;;;;;;;8.51;75.36;100909.00;5350587;32;33154;-61
2021/12/31 05:10:05;;;;;;;38.13;20.70;;;;;;;9.12;72.57;100908.37;5348503;32;33122;-67
2021/12/31 05:13:10;;;;;;;38.03;21.23;;;;;;;8.55;74.67;100910.63;5347534;32;34115;-62
2021/12/31 05:16:14;;;;;;;35.97;20.27;;;;;;;8.36;75.65;100916.25;5340090;32;33145;-61
2021/12/31 05:19:17;;;;;;;39.60;21.37;;;;;;;8.96;73.97;100912.31;5348101;32;32898;-61
2021/12/31 05:22:24;;;;;;;33.20;21.00;;;;;;;9.03;73.15;100898.16;5376409;32;34430;-61
2021/12/31 05:25:29;;;;;;;38.70;21.93;;;;;;;8.66;73.08;100909.50;5334142;32;34689;-67
2021/12/31 05:28:32;;;;;;;35.67;20.93;;;;;;;9.08;73.46;100896.28;5362134;32;34175;-67
2021/12/31 05:31:36;;;;;;;37.03;21.25;;;;;;;9.07;73.30;100901.53;5349241;32;35344;-65
2021/12/31 05:34:39;;;;;;;33.63;19.65;;;;;;;9.22;71.69;100895.94;5352498;32;34105;-61
2021/12/31 05:37:42;;;;;;;30.20;19.08;;;;;;;8.58;74.26;100910.56;5367034;32;34095;-61
2021/12/31 05:40:47;;;;;;;35.43;20.63;;;;;;;8.81;73.48;100917.88;5377005;32;35335;-66
2021/12/31 05:43:51;;;;;;;35.90;19.87;;;;;;;8.46;76.22;100905.59;5363831;32;34036;-60
2021/12/31 05:46:55;;;;;;;34.40;21.20;;;;;;;9.09;73.09;100913.72;5354535;32;32942;-66
2021/12/31 05:50:05;;;;;;;33.47;19.30;;;;;;;9.32;71.39;100917.53;5375585;32;34126;-61
2021/12/31 05:53:10;;;;;;;34.90;21.37;;;;;;;9.17;72.19;100910.91;5368836;32;33243;-67
2021/12/31 05:56:14;;;;;;;44.47;25.80;;;;;;;9.20;71.72;100916.91;5379273;32;34217;-61
2021/12/31 05:59:17;;;;;;;;;;;;;;;8.88;72.16;100914.22;5387180;32;34439;-61
2021/12/31 06:02:20;;;;;;;31.48;19.08;;;;;;;8.97;72.95;100915.78;5386539;32;35557;-61
2021/12/31 06:05:25;;;;;;;32.97;19.37;;;;;;;8.37;74.60;100902.28;5390172;32;34319;-62
2021/12/31 06:08:38;;;;;;;35.78;19.83;;;;;;;8.87;72.53;100912.50;5351069;33;34899;-61
2021/12/31 06:11:41;;;;;;;32.43;19.10;;;;;;;8.96;73.14;100922.78;5347547;33;33126;-66
2021/12/31 06:14:44;;;;;;;32.40;18.50;;;;;;;8.83;73.53;100913.50;5350869;33;35334;-65
2021/12/31 06:17:47;;;;;;;29.05;16.40;;;;;;;9.18;72.64;100917.88;5339808;33;34350;-66
2021/12/31 06:20:50;;;;;;;25.73;14.63;;;;;;;9.66;72.78;100915.75;5335021;33;33805;-61
2021/12/31 06:23:52;;;;;;;21.40;12.20;;;;;;;9.57;78.37;100920.38;5343524;33;34902;-67
2021/12/31 06:27:04;;;;;;;20.23;11.67;;;;;;;9.51;81.11;100918.78;5335183;33;34293;-68
2021/12/31 06:30:08;;;;;;;18.50;10.73;;;;;;;9.89;81.19;100911.63;5360004;33;33110;-62
2021/12/31 06:33:11;;;;;;;17.90;10.00;;;;;;;10.09;81.24;100913.69;5337382;33;36461;-68
2021/12/31 06:36:14;;;;;;;21.27;11.60;;;;;;;9.79;84.36;100934.66;5349451;33;33993;-62
2021/12/31 06:39:19;;;;;;;22.25;12.40;;;;;;;10.47;80.59;100936.25;5363154;32;34249;-61
2021/12/31 06:42:25;;;;;;;26.97;17.43;;;;;;;10.64;77.49;100947.12;5352777;32;35202;-67
2021/12/31 06:45:29;;;;;;;27.43;17.07;;;;;;;9.03;76.24;100957.59;5369273;32;34637;-68
2021/12/31 06:48:31;;;;;;;27.03;17.37;;;;;;;9.95;72.68;100951.69;5365057;32;33920;-67
2021/12/31 06:51:36;;;;;;;28.20;17.40;;;;;;;9.70;72.71;100950.62;5357392;32;34589;-66
2021/12/31 06:54:39;;;;;;;28.10;17.67;;;;;;;10.02;70.77;100947.12;5389917;32;34072;-60
2021/12/31 06:57:42;;;;;;;26.93;16.23;;;;;;;9.60;71.55;100947.41;5372753;32;35625;-60
2021/12/31 07:00:44;;;;;;;27.20;16.27;;;;;;;9.74;71.06;100955.78;5383784;32;34106;-60
2021/12/31 07:03:49;;;;;;;28.03;17.63;;;;;;;9.31;73.27;100960.41;5358954;32;34941;-67
2021/12/31 07:06:51;;;;;;;14.17;7.33;;;;;;;8.92;75.05;100963.94;5369434;32;33046;-61
2021/12/31 07:10:01;;;;;;;22.17;13.43;;;;;;;9.32;81.23;100959.50;5353235;32;33105;-62
2021/12/31 07:13:05;;;;;;;11.80;6.07;;;;;;;9.80;80.98;100964.41;5368663;32;33946;-66
2021/12/31 07:16:08;;;;;;;8.57;4.60;;;;;;;10.55;79.82;100965.78;5363036;32;34342;-61
2021/12/31 07:19:10;;;;;;;8.17;4.13;;;;;;;11.10;78.63;100964.94;5383759;32;34859;-66
2021/12/31 07:22:13;;;;;;;9.57;4.70;;;;;;;11.22;77.54;100966.31;5381215;32;34936;-67
2021/12/31 07:25:16;;;;;;;9.13;4.00;;;;;;;11.34;76.80;100962.44;5366128;32;33012;-61
2021/12/31 07:28:18;;;;;;;9.02;4.22;;;;;;;11.38;75.65;100970.16;5370443;32;34393;-61
2021/12/31 07:31:21;;;;;;;10.93;5.25;;;;;;;11.43;75.60;100967.38;5380639;32;34618;-61
2021/12/31 07:34:26;;;;;;;8.88;4.53;;;;;;;11.53;75.23;100975.84;5385107;32;34035;-62
2021/12/31 07:37:31;;;;;;;9.47;5.03;;;;;;;11.62;74.44;100965.00;5380065;32;34682;-67
2021/12/31 07:40:41;;;;;;;9.87;5.00;;;;;;;11.69;74.12;100974.41;5359712;32;33657;-68
2021/12/31 07:43:48;;;;;;;8.90;4.80;;;;;;;11.60;74.95;100980.00;5387513;32;34735;-61
2021/12/31 07:46:55;;;;;;;9.00;4.97;;;;;;;11.86;73.88;100972.09;5345864;32;34314;-61
2021/12/31 07:49:59;;;;;;;10.10;5.23;;;;;;;11.41;75.67;100979.75;5370029;32;34840;-68
2021/12/31 07:53:01;;;;;;;9.25;4.85;;;;;;;11.69;74.21;100978.81;5386520;32;34919;-63
2021/12/31 07:56:04;;;;;;;10.27;5.17;;;;;;;11.80;74.02;100984.56;5386787;32;33896;-62
2021/12/31 07:59:06;;;;;;;10.68;4.97;;;;;;;11.83;73.75;100987.97;5364865;32;35362;-67
2021/12/31 08:02:09;;;;;;;10.00;5.07;;;;;;;12.24;71.81;100987.44;5355707;32;33915;-61
2021/12/31 08:05:12;;;;;;;;;;;;;;;11.39;75.67;100992.94;5365156;32;34405;-65
2021/12/31 08:08:15;;;;;;;12.43;7.03;;;;;;;11.14;76.65;100997.25;5386665;32;34643;-61
2021/12/31 08:11:18;;;;;;;11.17;6.40;;;;;;;11.67;73.94;100986.78;5367900;32;34164;-68
2021/12/31 08:14:21;;;;;;;13.27;7.13;;;;;;;11.38;75.19;100993.84;5377701;32;32975;-68
2021/12/31 08:17:24;;;;;;;14.23;7.87;;;;;;;11.29;76.43;100996.78;5366374;32;33571;-67
2021/12/31 08:20:27;;;;;;;13.60;8.20;;;;;;;11.62;75.64;101000.06;5374542;32;34744;-62
2021/12/31 08:23:30;;;;;;;12.02;6.97;;;;;;;11.79;74.64;101010.06;5387980;32;33552;-61
2021/12/31 08:26:33;;;;;;;12.48;6.10;;;;;;;11.32;77.04;101001.94;5367520;32;34145;-67
2021/12/31 08:29:37;;;;;;;10.03;5.70;;;;;;;11.65;75.42;101005.22;5376496;32;33469;-62
2021/12/31 08:32:41;;;;;;;10.27;5.83;;;;;;;11.87;73.94;101000.13;5384269;32;34367;-61
2021/12/31 08:35:43;;;;;;;9.57;5.53;;;;;;;11.85;74.07;100996.72;5366104;32;34517;-66
2021/12/31 08:38:45;;;;;;;9.77;4.80;;;;;;;12.53;71.27;100991.62;5381150;32;34540;-68
2021/12/31 08:41:48;;;;;;;10.57;4.30;;;;;;;12.19;72.16;100998.16;5373363;32;34691;-67
2021/12/31 08:44:51;;;;;;;8.33;4.43;;;;;;;12.24;72.62;100996.22;5384285;32;34365;-62
2021/12/31 08:48:01;;;;;;;9.43;4.00;;;;;;;12.51;71.17;100991.69;5367909;32;34216;-61
2021/12/31 08:51:03;;;;;;;6.83;3.90;;;;;;;12.55;70.83;100990.63;5372907;32;34667;-67
2021/12/31 08:54:06;;;;;;;7.93;3.97;;;;;;;12.55;70.72;101002.97;5383103;32;34912;-66
2021/12/31 08:57:08;;;;;;;8.53;4.23;;;;;;;12.36;71.19;100998.38;5378670;32;34505;-67
2021/12/31 09:00:14;;;;;;;10.83;3.67;;;;;;;12.39;71.60;101005.31;5370392;32;34100;-68
2021/12/31 09:03:25;;;;;;;8.30;3.57;;;;;;;12.48;71.23;101000.56;5379736;32;34971;-61
2021/12/31 09:06:32;;;;;;;8.07;3.80;;;;;;;12.70;70.08;101007.69;5347128;32;34029;-62
2021/12/31 09:09:40;;;;;;;8.23;3.80;;;;;;;12.62;70.53;101010.63;5392678;32;33405;-67
2021/12/31 09:12:46;;;;;;;7.70;3.80;;;;;;;12.42;71.72;101002.56;5346905;32;34244;-67
2021/12/31 09:15:57;;;;;;;9.80;3.60;;;;;;;12.65;70.78;101009.63;5360355;32;33033;-61
2021/12/31 09:19:02;;;;;;;10.47;4.33;;;;;;;12.66;70.45;101006.94;5366194;32;35017;-61
2021/12/31 09:22:06;;;;;;;5.65;3.20;;;;;;;12.71;70.51;101012.87;5384185;32;33817;-61
2021/12/31 09:25:10;;;;;;;7.90;3.40;;;;;;;12.53;71.46;101015.34;5372741;32;34335;-66
2021/12/31 09:28:12;;;;;;;7.78;3.80;;;;;;;12.76;70.64;101011.88;5374030;32;35649;-67
2021/12/31 09:31:15;;;;;;;6.93;3.53;;;;;;;13.26;68.05;101008.09;5391011;32;34413;-67
2021/12/31 09:34:24;;;;;;;9.00;3.63;;;;;;;12.91;69.79;101017.41;5383686;32;35432;-61
2021/12/31 09:37:28;;;;;;;7.40;3.53;;;;;;;12.83;70.17;101002.81;5394804;32;34279;-67
2021/12/31 09:40:32;;;;;;;7.90;4.13;;;;;;;12.67;70.56;100997.22;5348898;32;247742;-67
2021/12/31 09:43:39;;;;;;;6.93;3.67;;;;;;;12.61;71.34;100995.69;5386506;32;35191;-62
2021/12/31 09:46:43;;;;;;;7.40;3.63;;;;;;;12.88;70.18;100995.53;5358581;32;34842;-68
2021/12/31 09:49:51;;;;;;;7.28;3.78;;;;;;;13.16;69.18;100985.63;5378996;32;34211;-68
2021/12/31 09:53:05;;;;;;;8.03;3.77;;;;;;;13.05;69.41;100977.28;5371396;32;35523;-68
2021/12/31 09:56:08;;;;;;;6.80;3.17;;;;;;;13.45;67.92;100986.25;5375651;32;33629;-60
2021/12/31 09:59:12;;;;;;;6.22;3.12;;;;;;;13.37;68.25;100978.66;5386506;32;33521;-62
2021/12/31 10:02:16;;;;;;;7.70;3.53;;;;;;;13.19;68.16;100974.06;5383250;32;34387;-62
2021/12/31 10:05:19;;;;;;;7.13;3.60;;;;;;;13.45;67.99;100979.19;5351771;32;33952;-63
2021/12/31 10:08:24;;;;;;;8.67;3.87;;;;;;;13.10;69.24;100971.81;5387953;32;34089;-68
2021/12/31 10:11:27;;;;;;;6.80;3.67;;;;;;;13.49;67.58;100974.62;5373774;32;34302;-67
2021/12/31 10:14:39;;;;;;;8.53;3.70;;;;;;;13.60;67.38;100974.19;5393637;32;34176;-68
2021/12/31 10:17:46;;;;;;;7.67;3.40;;;;;;;14.22;64.45;100965.28;5368620;32;35459;-61
2021/12/31 10:20:59;;;;;;;8.07;3.60;;;;;;;13.97;65.68;100974.31;5379093;32;34509;-61
2021/12/31 10:24:19;;;;;;;7.53;3.70;;;;;;;13.57;67.28;100972.53;5359805;32;34076;-68
2021/12/31 10:27:23;;;;;;;8.13;3.63;;;;;;;13.47;67.03;100982.63;5386108;32;34578;-69
2021/12/31 10:30:27;;;;;;;13.93;4.27;;;;;;;13.64;67.25;100970.47;5382325;32;34019;-62
2021/12/31 10:33:45;;;;;;;8.20;3.50;;;;;;;14.36;64.01;100962.87;5377905;32;33160;-69
2021/12/31 10:36:48;;;;;;;8.20;3.53;;;;;;;13.99;64.96;100968.97;5379619;32;33018;-61
2021/12/31 10:40:01;;;;;;;5.97;3.13;;;;;;;13.90;65.73;100964.94;5408754;32;34150;-63
2021/12/31 10:43:21;;;;;;;4.90;2.60;;;;;;;14.28;64.62;100962.37;5362526;32;35625;-67
2021/12/31 10:46:30;;;;;;;4.13;2.43;;;;;;;13.85;65.12;100960.78;5388753;32;33745;-61
2021/12/31 10:50:05;;;;;;;5.57;2.53;;;;;;;13.82;64.88;100959.13;5360380;32;34770;-68
2021/12/31 10:53:11;;;;;;;4.03;2.40;;;;;;;14.74;61.75;100962.94;5373655;32;33176;-63
2021/12/31 10:56:14;;;;;;;4.67;2.53;;;;;;;14.42;62.70;100959.09;5388743;32;34127;-68
2021/12/31 10:59:16;;;;;;;;;;;;;;;15.31;59.70;100963.69;5379435;32;34161;-67
2021/12/31 11:02:19;;;;;;;4.87;2.20;;;;;;;14.74;61.80;100962.94;5380616;32;34658;-61
2021/12/31 11:05:26;;;;;;;3.80;2.05;;;;;;;15.31;59.41;100958.41;5378717;32;34093;-61
2021/12/31 11:08:30;;;;;;;3.27;2.10;;;;;;;14.72;61.09;100954.22;5363540;32;34141;-61
2021/12/31 11:11:35;;;;;;;3.77;2.00;;;;;;;15.21;59.39;100944.78;5367254;32;33951;-68
2021/12/31 11:14:39;;;;;;;4.00;1.70;;;;;;;15.74;57.70;100935.06;5378762;32;35501;-68
2021/12/31 11:17:46;;;;;;;2.60;1.73;;;;;;;15.03;59.68;100933.28;5388336;32;34270;-61
2021/12/31 11:21:05;;;;;;;2.27;1.70;;;;;;;16.25;55.94;100931.47;5379506;32;35416;-67
2021/12/31 11:24:27;;;;;;;2.50;1.30;;;;;;;15.93;56.51;100923.41;5392816;32;34589;-69
2021/12/31 11:27:32;;;;;;;2.22;1.40;;;;;;;16.01;56.17;100923.00;5379269;32;34072;-68
2021/12/31 11:30:37;;;;;;;4.43;1.43;;;;;;;15.85;56.10;100930.06;5391416;32;34209;-61
2021/12/31 11:33:41;;;;;;;2.83;1.70;;;;;;;14.88;59.02;100928.75;5373875;32;34262;-68
2021/12/31 11:36:55;;;;;;;3.07;1.90;;;;;;;15.54;57.50;100923.66;5361269;32;34696;-63
2021/12/31 11:40:34;;;;;;;3.10;1.60;;;;;;;15.35;57.54;100920.25;5365299;32;34314;-69
2021/12/31 11:43:38;;;;;;;2.83;1.80;;;;;;;15.69;56.71;100919.41;5386230;32;32913;-61
2021/12/31 11:46:47;;;;;;;5.40;2.70;;;;;;;15.39;57.75;100916.47;5382835;32;33256;-62
2021/12/31 11:50:25;;;;;;;4.20;2.00;;;;;;;15.54;57.85;100909.56;5353466;32;33765;-69
2021/12/31 11:53:32;;;;;;;4.27;2.27;;;;;;;15.76;56.70;100911.97;5372015;32;33677;-67
2021/12/31 11:56:34;;;;;;;4.57;2.10;;;;;;;15.93;56.02;100914.63;5386129;32;35632;-67
2021/12/31 11:59:48;;;;;;;4.68;2.42;;;;;;;16.45;54.41;100915.31;5386285;32;33464;-67
2021/12/31 12:02:50;;;;;;;3.75;2.10;;;;;;;17.41;51.11;100913.44;5386315;32;34672;-68
2021/12/31 12:05:53;;;;;;;6.07;3.00;;;;;;;17.12;51.87;100926.59;5358715;32;33956;-61
2021/12/31 12:08:56;;;;;;;5.03;2.50;;;;;;;17.26;51.45;100913.38;5378181;32;33790;-62
2021/12/31 12:12:13;;;;;;;4.13;2.50;;;;;;;18.32;49.21;100902.50;5358844;32;33009;-63
2021/12/31 12:15:15;;;;;;;4.77;2.40;;;;;;;20.10;45.43;100901.34;5396639;32;34028;-62
2021/12/31 12:19:05;;;;;;;4.50;2.70;;;;;;;21.56;40.69;100900.34;5388917;32;34356;-67
2021/12/31 12:22:09;;;;;;;5.97;3.30;;;;;;;21.54;40.34;100902.31;5379535;32;34903;-68
2021/12/31 12:25:25;;;;;;;5.30;2.60;;;;;;;21.74;40.15;100900.75;5372366;32;33767;-62
2021/12/31 12:28:27;;;;;;;3.70;1.90;;;;;;;20.76;42.51;100905.47;5388020;32;34819;-62
2021/12/31 12:31:39;;;;;;;4.65;2.10;;;;;;;20.96;41.61;100896.84;5367922;32;34448;-67
2021/12/31 12:34:44;;;;;;;;;;;;;;;19.71;44.03;100893.34;5361309;32;34065;-64
2021/12/31 12:38:26;;;;;;;2.30;1.80;;;;;;;19.42;44.30;100892.62;5373092;32;33252;-62
2021/12/31 12:41:29;;;;;;;2.57;1.83;;;;;;;20.69;41.79;100896.22;5380054;32;33647;-61
2021/12/31 12:44:33;;;;;;;4.90;2.20;;;;;;;19.82;44.16;100887.25;5380048;32;34175;-69
2021/12/31 12:47:38;;;;;;;3.13;1.90;;;;;;;20.90;41.67;100891.94;5365626;32;33300;-62
2021/12/31 12:50:50;;;;;;;4.20;2.00;;;;;;;20.54;42.48;100896.38;5390958;32;33766;-62
2021/12/31 12:53:59;;;;;;;2.97;1.90;;;;;;;18.78;46.44;100898.72;5377175;32;34430;-62
2021/12/31 12:57:03;;;;;;;5.23;2.40;;;;;;;18.13;47.71;100893.97;5389927;32;34719;-69
2021/12/31 13:00:07;;;;;;;4.20;1.90;;;;;;;18.88;46.63;100891.88;5379130;32;35728;-67
2021/12/31 13:03:12;;;;;;;3.37;1.80;;;;;;;19.24;45.48;100872.56;5392298;32;34080;-61
2021/12/31 13:06:14;;;;;;;4.47;2.40;;;;;;;18.26;47.59;100878.09;5359956;32;32955;-69
2021/12/31 13:09:18;;;;;;;8.27;4.57;;;;;;;19.31;45.30;100871.19;5396901;32;34866;-63
2021/12/31 13:12:28;;;;;;;5.23;2.27;;;;;;;18.44;46.86;100868.94;5365218;32;32947;-68
2021/12/31 13:15:30;;;;;;;3.78;2.17;;;;;;;17.50;49.74;100873.00;5381155;32;34014;-62
2021/12/31 13:18:37;;;;;;;5.10;2.90;;;;;;;17.36;50.52;100875.62;5397590;32;34201;-62
2021/12/31 13:21:43;;;;;;;5.87;2.45;;;;;;;17.92;49.44;100863.41;5363507;32;35213;-62
2021/12/31 13:24:54;;;;;;;3.83;2.33;;;;;;;17.32;50.97;100867.87;5400634;32;33429;-68
2021/12/31 13:28:30;;;;;;;6.80;3.27;;;;;;;16.46;54.62;100869.25;5377815;32;34218;-68
2021/12/31 13:31:42;;;;;;;5.80;3.07;;;;;;;17.27;52.37;100861.13;5366164;32;35008;-63
2021/12/31 13:34:51;;;;;;;6.13;3.30;;;;;;;16.42;54.67;100856.25;5368888;32;33656;-62
2021/12/31 13:38:06;;;;;;;11.33;6.13;;;;;;;15.79;57.60;100850.87;5380118;32;33313;-69
2021/12/31 13:41:21;;;;;;;8.50;3.40;;;;;;;17.24;53.33;100846.19;5381853;32;35193;-63
2021/12/31 13:44:29;;;;;;;5.73;3.00;;;;;;;15.66;58.45;100862.12;5388478;32;34152;-62
2021/12/31 13:47:32;;;;;;;6.20;3.10;;;;;;;16.28;56.45;100864.13;5377610;32;32559;-62
2021/12/31 13:50:35;;;;;;;6.68;3.67;;;;;;;16.93;54.56;100856.91;5372727;32;34968;-68
2021/12/31 13:53:48;;;;;;;9.00;3.65;;;;;;;16.80;54.73;100870.03;5370074;32;35199;-62
2021/12/31 13:56:51;;;;;;;9.53;4.20;;;;;;;17.18;53.36;100851.88;5378698;32;34226;-62
2021/12/31 14:00:16;;;;;;;9.90;4.10;;;;;;;16.69;54.32;100853.84;5371143;32;33052;-63
2021/12/31 14:03:19;;;;;;;7.33;4.03;;;;;;;17.32;53.33;100846.63;5381751;32;34141;-66
2021/12/31 14:06:24;;;;;;;6.40;3.40;;;;;;;16.66;53.99;100856.66;5373598;32;35896;-62
2021/12/31 14:09:27;;;;;;;3.97;2.35;;;;;;;16.96;53.42;100841.66;5369734;32;32918;-61
2021/12/31 14:12:29;;;;;;;6.00;3.25;;;;;;;16.81;53.52;100847.00;5365099;32;35551;-67
2021/12/31 14:15:38;;;;;;;6.80;3.57;;;;;;;16.97;53.31;100846.03;5374814;32;35235;-68
2021/12/31 14:18:41;;;;;;;8.67;3.43;;;;;;;17.18;52.59;100851.88;5356856;32;34497;-61
2021/12/31 14:21:43;;;;;;;5.50;2.70;;;;;;;17.37;52.32;100856.94;5379778;32;34679;-66